createdAt,value
2022-08-03T00:00:23.827Z,53.33
2022-08-03T00:00:58.498Z,65.93
2022-08-03T00:01:33.526Z,51.33
2022-08-03T00:02:08.354Z,50.47
2022-08-03T00:02:43.157Z,43.72
2022-08-03T00:03:17.567Z,51.00
2022-08-03T00:03:51.876Z,53.28
2022-08-03T00:04:33.929Z,40.85
2022-08-03T00:05:09.705Z,63.65
2022-08-03T00:06:03.863Z,54.20
2022-08-03T00:06:39.209Z,46.28
2022-08-03T00:07:14.900Z,61.53
2022-08-03T00:07:49.554Z,58.35
2022-08-03T00:08:23.348Z,52.25
2022-08-03T00:08:59.573Z,52.17
2022-08-03T00:09:35.675Z,50.03
2022-08-03T00:10:11.054Z,58.15
2022-08-03T00:10:46.580Z,39.33
2022-08-03T00:11:21.105Z,42.47
2022-08-03T00:11:55.743Z,45.53
2022-08-03T00:12:31.384Z,44.10
2022-08-03T00:13:05.133Z,45.17
2022-08-03T00:13:40.173Z,45.15
2022-08-03T00:14:14.708Z,56.90
2022-08-03T00:14:48.949Z,50.92
2022-08-03T00:15:22.899Z,57.38
2022-08-03T00:15:57.646Z,46.10
2022-08-03T00:16:31.457Z,54.70
2022-08-03T00:17:05.581Z,50.30
2022-08-03T00:17:53.443Z,54.65
2022-08-03T00:18:28.985Z,50.00
2022-08-03T00:19:03.434Z,48.85
2022-08-03T00:19:38.223Z,51.30
2022-08-03T00:20:13.667Z,60.75
2022-08-03T00:20:48.139Z,39.10
2022-08-03T00:21:22.833Z,43.58
2022-08-03T00:21:57.869Z,45.28
2022-08-03T00:22:32.096Z,59.03
2022-08-03T00:23:07.767Z,55.70
2022-08-03T00:23:51.887Z,52.67
2022-08-03T00:24:28.986Z,41.45
2022-08-03T00:25:04.405Z,47.50
2022-08-03T00:25:38.093Z,49.33
2022-08-03T00:26:13.229Z,51.80
2022-08-03T00:26:47.276Z,46.85
2022-08-03T00:27:21.556Z,47.70
2022-08-03T00:27:56.317Z,45.38
2022-08-03T00:28:32.333Z,33.38
2022-08-03T00:29:08.263Z,45.80
2022-08-03T00:30:00.094Z,48.88
2022-08-03T00:30:36.402Z,40.97
2022-08-03T00:31:13.266Z,48.03
2022-08-03T00:31:52.669Z,34.30
2022-08-03T00:32:34.133Z,48.22
2022-08-03T00:33:08.426Z,46.40
2022-08-03T00:33:59.206Z,43.58
2022-08-03T00:34:57.639Z,51.40
2022-08-03T00:35:50.184Z,36.78
2022-08-03T00:36:26.289Z,47.95
2022-08-03T00:37:01.783Z,50.65
2022-08-03T00:37:40.789Z,45.95
2022-08-03T00:38:16.244Z,42.83
2022-08-03T00:38:51.013Z,46.78
2022-08-03T00:39:24.612Z,41.88
2022-08-03T00:39:59.954Z,44.67
2022-08-03T00:40:35.834Z,43.17
2022-08-03T00:41:11.034Z,42.90
2022-08-03T00:41:51.221Z,59.28
2022-08-03T00:42:28.547Z,33.83
2022-08-03T00:43:05.265Z,50.83
2022-08-03T00:43:38.742Z,38.25
2022-08-03T00:44:13.851Z,49.53
2022-08-03T00:44:48.552Z,41.78
2022-08-03T00:45:24.186Z,44.72
2022-08-03T00:45:59.084Z,35.20
2022-08-03T00:46:35.380Z,43.08
2022-08-03T00:47:09.556Z,48.65
2022-08-03T00:47:43.164Z,39.25
2022-08-03T00:48:19.293Z,39.85
2022-08-03T00:49:04.754Z,43.78
2022-08-03T00:49:39.125Z,43.28
2022-08-03T00:50:16.992Z,39.85
2022-08-03T00:50:54.074Z,37.58
2022-08-03T00:51:29.590Z,52.90
2022-08-03T00:52:07.759Z,41.28
2022-08-03T00:52:43.764Z,44.70
2022-08-03T00:53:18.377Z,35.50
2022-08-03T00:53:52.947Z,36.50
2022-08-03T00:54:27.054Z,46.30
2022-08-03T00:55:02.898Z,43.72
2022-08-03T00:55:39.758Z,37.38
2022-08-03T00:56:15.705Z,42.65
2022-08-03T00:56:59.556Z,38.17
2022-08-03T00:57:33.886Z,38.92
2022-08-03T00:58:08.305Z,46.83
2022-08-03T00:58:43.893Z,40.65
2022-08-03T00:59:19.267Z,48.85
2022-08-03T00:59:54.328Z,39.92
2022-08-03T01:00:29.460Z,32.83
2022-08-03T01:01:05.294Z,44.35
2022-08-03T01:01:39.527Z,34.55
2022-08-03T01:02:14.752Z,39.03
2022-08-03T01:02:49.113Z,35.10
2022-08-03T01:03:22.809Z,40.63
2022-08-03T01:03:57.588Z,43.90
2022-08-03T01:04:31.100Z,43.63
2022-08-03T01:05:06.852Z,39.38
2022-08-03T01:05:44.995Z,44.78
2022-08-03T01:06:20.087Z,31.85
2022-08-03T01:06:58.281Z,43.40
2022-08-03T01:07:40.103Z,44.72
2022-08-03T01:08:17.106Z,56.45
2022-08-03T01:08:56.219Z,35.40
2022-08-03T01:09:34.264Z,34.65
2022-08-03T01:10:12.444Z,35.70
2022-08-03T01:10:52.014Z,48.58
2022-08-03T01:11:32.548Z,33.38
2022-08-03T01:12:11.022Z,37.58
2022-08-03T01:12:47.220Z,46.35
2022-08-03T01:14:01.898Z,35.78
2022-08-03T01:14:23.090Z,31.70
2022-08-03T01:15:05.076Z,39.45
2022-08-03T01:15:42.773Z,40.97
2022-08-03T01:16:20.534Z,40.33
2022-08-03T01:17:01.914Z,35.47
2022-08-03T01:17:38.483Z,36.83
2022-08-03T01:18:18.391Z,40.85
2022-08-03T01:18:56.198Z,35.92
2022-08-03T01:19:39.115Z,41.88
2022-08-03T01:20:16.273Z,32.72
2022-08-03T01:20:53.903Z,41.25
2022-08-03T01:21:29.557Z,44.30
2022-08-03T01:22:10.398Z,35.90
2022-08-03T01:23:00.829Z,36.38
2022-08-03T01:23:43.701Z,43.33
2022-08-03T01:24:25.646Z,32.42
2022-08-03T01:25:10.156Z,38.40
2022-08-03T01:25:58.009Z,39.72
2022-08-03T01:26:56.659Z,35.22
2022-08-03T01:27:33.058Z,36.55
2022-08-03T01:28:17.100Z,44.03
2022-08-03T01:28:59.931Z,42.65
2022-08-03T01:29:59.191Z,39.55
2022-08-03T01:30:36.812Z,39.47
2022-08-03T01:31:12.890Z,32.30
2022-08-03T01:32:59.859Z,35.10
2022-08-03T01:33:00.127Z,34.72
2022-08-03T01:33:39.402Z,32.90
2022-08-03T01:34:17.236Z,42.95
2022-08-03T01:34:54.611Z,38.45
2022-08-03T01:35:30.717Z,36.58
2022-08-03T01:36:06.759Z,32.33
2022-08-03T01:36:42.611Z,44.90
2022-08-03T01:37:20.336Z,30.50
2022-08-03T01:37:56.570Z,32.22
2022-08-03T01:38:32.461Z,38.47
2022-08-03T01:39:09.637Z,38.10
2022-08-03T01:39:44.988Z,39.90
2022-08-03T01:40:19.190Z,41.80
2022-08-03T01:40:56.075Z,37.17
2022-08-03T01:41:33.363Z,36.42
2022-08-03T01:42:10.430Z,59.40
2022-08-03T01:42:48.183Z,54.30
2022-08-03T01:44:27.043Z,43.45
2022-08-03T01:44:29.641Z,27.88
2022-08-03T01:45:06.754Z,36.88
2022-08-03T01:45:43.344Z,43.22
2022-08-03T01:46:18.012Z,39.70
2022-08-03T01:46:51.726Z,43.28
2022-08-03T01:47:26.444Z,34.28
2022-08-03T01:48:02.457Z,34.83
2022-08-03T01:48:38.433Z,35.05
2022-08-03T01:49:13.828Z,41.67
2022-08-03T01:49:49.157Z,36.88
2022-08-03T01:50:26.038Z,31.90
2022-08-03T01:51:01.169Z,25.88
2022-08-03T01:51:56.156Z,36.92
2022-08-03T01:52:30.545Z,34.78
2022-08-03T01:53:05.902Z,33.85
2022-08-03T01:53:43.897Z,35.53
2022-08-03T01:54:18.415Z,39.35
2022-08-03T01:54:54.679Z,30.27
2022-08-03T01:55:30.054Z,35.40
2022-08-03T01:56:05.841Z,26.15
2022-08-03T01:56:42.988Z,42.90
2022-08-03T01:57:17.572Z,40.90
2022-08-03T01:58:05.410Z,63.80
2022-08-03T01:58:42.484Z,56.75
2022-08-03T01:59:18.398Z,55.35
2022-08-03T01:59:54.796Z,51.28
2022-08-03T02:00:31.443Z,40.42
2022-08-03T02:01:08.068Z,44.65
2022-08-03T02:02:16.101Z,29.90
2022-08-03T02:02:39.051Z,37.78
2022-08-03T02:03:17.121Z,24.73
2022-08-03T02:04:00.243Z,30.52
2022-08-03T02:04:36.424Z,32.38
2022-08-03T02:05:12.948Z,28.13
2022-08-03T02:05:47.335Z,33.75
2022-08-03T02:07:01.506Z,28.73
2022-08-03T02:07:17.281Z,34.92
2022-08-03T02:07:51.756Z,47.10
2022-08-03T02:08:26.166Z,46.70
2022-08-03T02:09:00.752Z,44.15
2022-08-03T02:09:37.003Z,38.20
2022-08-03T02:10:12.826Z,37.60
2022-08-03T02:10:49.705Z,42.78
2022-08-03T02:11:23.595Z,56.92
2022-08-03T02:11:59.731Z,49.22
2022-08-03T02:12:35.513Z,54.80
2022-08-03T02:13:10.429Z,47.70
2022-08-03T02:13:45.523Z,37.60
2022-08-03T02:14:22.104Z,39.67
2022-08-03T02:14:56.705Z,41.38
2022-08-03T02:15:33.214Z,43.70
2022-08-03T02:16:09.328Z,41.17
2022-08-03T02:16:45.943Z,38.03
2022-08-03T02:17:39.618Z,38.30
2022-08-03T02:18:14.838Z,55.67
2022-08-03T02:18:51.019Z,37.20
2022-08-03T02:19:25.504Z,40.47
2022-08-03T02:20:01.280Z,39.08
2022-08-03T02:20:38.654Z,40.28
2022-08-03T02:21:13.067Z,41.70
2022-08-03T02:22:11.954Z,37.70
2022-08-03T02:22:46.013Z,46.15
2022-08-03T02:23:21.903Z,44.40
2022-08-03T02:23:58.013Z,55.53
2022-08-03T02:24:33.368Z,39.35
2022-08-03T02:25:09.269Z,40.78
2022-08-03T02:25:48.334Z,45.67
2022-08-03T02:26:24.403Z,53.20
2022-08-03T02:26:58.464Z,40.75
2022-08-03T02:27:34.546Z,42.85
2022-08-03T02:28:14.475Z,38.35
2022-08-03T02:28:52.448Z,46.17
2022-08-03T02:29:38.830Z,38.70
2022-08-03T02:30:16.420Z,36.55
2022-08-03T02:30:54.227Z,38.53
2022-08-03T02:31:31.693Z,49.40
2022-08-03T02:32:07.392Z,46.20
2022-08-03T02:32:45.037Z,30.10
2022-08-03T02:33:21.235Z,33.55
2022-08-03T02:33:56.654Z,42.85
2022-08-03T02:34:31.108Z,48.42
2022-08-03T02:35:09.107Z,46.42
2022-08-03T02:35:45.498Z,33.72
2022-08-03T02:36:21.871Z,43.97
2022-08-03T02:36:56.248Z,39.35
2022-08-03T02:37:33.934Z,32.30
2022-08-03T02:38:09.320Z,39.60
2022-08-03T02:38:44.383Z,37.00
2022-08-03T02:39:22.072Z,39.33
2022-08-03T02:39:59.764Z,40.10
2022-08-03T02:40:35.628Z,52.33
2022-08-03T02:41:10.987Z,36.20
2022-08-03T02:41:47.565Z,44.55
2022-08-03T02:42:25.109Z,35.85
2022-08-03T02:43:00.846Z,41.85
2022-08-03T02:43:40.219Z,33.13
2022-08-03T02:44:33.411Z,35.17
2022-08-03T02:45:09.749Z,29.98
2022-08-03T02:45:49.173Z,40.58
2022-08-03T02:46:26.899Z,34.55
2022-08-03T02:47:03.282Z,33.47
2022-08-03T02:47:53.952Z,44.30
2022-08-03T02:48:30.615Z,34.85
2022-08-03T02:49:41.156Z,26.60
2022-08-03T02:50:02.375Z,34.83
2022-08-03T02:50:36.639Z,33.97
2022-08-03T02:51:11.884Z,34.20
2022-08-03T02:51:47.845Z,33.78
2022-08-03T02:52:22.732Z,32.55
2022-08-03T02:52:58.779Z,44.72
2022-08-03T02:53:34.153Z,37.10
2022-08-03T02:54:09.110Z,34.67
2022-08-03T02:54:43.389Z,36.65
2022-08-03T02:55:18.810Z,33.17
2022-08-03T02:55:54.886Z,32.30
2022-08-03T02:56:30.036Z,36.30
2022-08-03T02:57:03.544Z,46.92
2022-08-03T02:57:39.857Z,44.00
2022-08-03T02:58:16.122Z,39.85
2022-08-03T02:58:51.809Z,34.95
2022-08-03T02:59:27.034Z,41.80
2022-08-03T03:00:03.205Z,36.35
2022-08-03T03:00:39.571Z,43.25
2022-08-03T03:01:13.916Z,35.20
2022-08-03T03:01:50.473Z,34.97
2022-08-03T03:02:27.093Z,40.53
2022-08-03T03:03:01.445Z,34.63
2022-08-03T03:03:38.609Z,42.45
2022-08-03T03:04:20.984Z,34.10
2022-08-03T03:05:53.244Z,35.92
2022-08-03T03:05:57.538Z,35.45
2022-08-03T03:06:32.080Z,36.20
2022-08-03T03:07:07.373Z,53.67
2022-08-03T03:07:52.007Z,41.15
2022-08-03T03:08:29.013Z,38.97
2022-08-03T03:09:03.556Z,37.75
2022-08-03T03:09:43.085Z,40.05
2022-08-03T03:10:18.126Z,37.80
2022-08-03T03:10:55.334Z,42.15
2022-08-03T03:11:31.456Z,37.17
2022-08-03T03:12:06.957Z,43.38
2022-08-03T03:12:40.438Z,36.38
2022-08-03T03:13:15.993Z,28.85
2022-08-03T03:13:51.189Z,33.53
2022-08-03T03:14:33.533Z,36.88
2022-08-03T03:15:09.133Z,29.08
2022-08-03T03:15:43.887Z,30.33
2022-08-03T03:16:18.712Z,29.60
2022-08-03T03:16:57.679Z,36.10
2022-08-03T03:17:34.820Z,32.20
2022-08-03T03:18:11.101Z,32.38
2022-08-03T03:18:47.654Z,40.80
2022-08-03T03:19:21.865Z,41.60
2022-08-03T03:19:57.452Z,32.13
2022-08-03T03:20:33.817Z,34.05
2022-08-03T03:21:08.571Z,43.08
2022-08-03T03:21:42.390Z,39.95
2022-08-03T03:22:17.592Z,40.95
2022-08-03T03:22:52.564Z,35.08
2022-08-03T03:23:26.853Z,34.85
2022-08-03T03:24:03.558Z,33.90
2022-08-03T03:24:37.695Z,43.42
2022-08-03T03:25:12.194Z,44.05
2022-08-03T03:25:47.704Z,32.30
2022-08-03T03:26:22.204Z,31.27
2022-08-03T03:26:56.781Z,30.73
2022-08-03T03:27:31.480Z,31.17
2022-08-03T03:28:06.636Z,27.60
2022-08-03T03:28:40.304Z,25.35
2022-08-03T03:29:15.385Z,36.83
2022-08-03T03:29:50.919Z,37.97
2022-08-03T03:30:25.463Z,45.55
2022-08-03T03:31:01.427Z,29.55
2022-08-03T03:31:36.843Z,26.88
2022-08-03T03:32:11.351Z,27.45
2022-08-03T03:32:52.580Z,31.70
2022-08-03T03:33:28.664Z,25.45
2022-08-03T03:34:03.544Z,27.50
2022-08-03T03:34:38.388Z,31.35
2022-08-03T03:35:12.775Z,24.38
2022-08-03T03:35:47.988Z,24.92
2022-08-03T03:36:23.505Z,25.50
2022-08-03T03:36:58.627Z,29.63
2022-08-03T03:37:33.493Z,25.55
2022-08-03T03:38:09.541Z,29.08
2022-08-03T03:38:43.351Z,22.40
2022-08-03T03:39:19.316Z,27.05
2022-08-03T03:39:54.641Z,22.25
2022-08-03T03:40:28.953Z,25.42
2022-08-03T03:41:04.304Z,45.22
2022-08-03T03:41:38.623Z,31.83
2022-08-03T03:42:12.869Z,26.80
2022-08-03T03:42:49.579Z,19.90
2022-08-03T03:43:24.876Z,34.97
2022-08-03T03:43:58.838Z,29.02
2022-08-03T03:44:33.878Z,24.73
2022-08-03T03:45:08.417Z,22.00
2022-08-03T03:45:43.259Z,23.52
2022-08-03T03:46:20.047Z,24.40
2022-08-03T03:46:55.157Z,22.77
2022-08-03T03:47:32.734Z,32.13
2022-08-03T03:48:10.106Z,30.83
2022-08-03T03:48:44.818Z,56.22
2022-08-03T03:49:18.891Z,31.13
2022-08-03T03:49:54.353Z,60.53
2022-08-03T03:50:29.040Z,59.00
2022-08-03T03:51:02.849Z,22.83
2022-08-03T03:51:37.093Z,19.23
2022-08-03T03:52:12.308Z,20.05
2022-08-03T03:52:47.371Z,16.30
2022-08-03T03:53:22.381Z,20.75
2022-08-03T03:53:57.098Z,16.60
2022-08-03T03:54:42.032Z,21.30
2022-08-03T03:55:19.049Z,26.42
2022-08-03T03:55:59.603Z,26.08
2022-08-03T03:56:38.296Z,16.27
2022-08-03T03:57:13.827Z,14.93
2022-08-03T03:57:48.888Z,18.45
2022-08-03T03:58:23.537Z,20.95
2022-08-03T03:58:58.923Z,18.35
2022-08-03T03:59:32.674Z,15.52
2022-08-03T04:00:12.922Z,15.73
2022-08-03T04:00:47.544Z,16.30
2022-08-03T04:01:21.907Z,14.85
2022-08-03T04:01:59.228Z,21.90
2022-08-03T04:02:33.809Z,14.98
2022-08-03T04:03:14.399Z,48.70
2022-08-03T04:03:48.457Z,23.02
2022-08-03T04:04:41.229Z,18.08
2022-08-03T04:05:34.526Z,21.15
2022-08-03T04:06:26.293Z,18.58
2022-08-03T04:07:18.424Z,14.05
2022-08-03T04:08:16.111Z,21.17
2022-08-03T04:09:11.107Z,21.50
2022-08-03T04:10:08.889Z,21.52
2022-08-03T04:10:59.918Z,15.20
2022-08-03T04:11:38.554Z,20.40
2022-08-03T04:12:13.519Z,18.17
2022-08-03T04:12:50.514Z,16.90
2022-08-03T04:13:24.093Z,17.60
2022-08-03T04:14:01.928Z,18.67
2022-08-03T04:14:38.157Z,17.95
2022-08-03T04:15:14.137Z,19.17
2022-08-03T04:15:50.292Z,17.67
2022-08-03T04:16:25.693Z,14.00
2022-08-03T04:17:01.593Z,19.42
2022-08-03T04:17:36.533Z,13.73
2022-08-03T04:18:14.296Z,14.20
2022-08-03T04:18:53.351Z,18.48
2022-08-03T04:19:31.322Z,13.73
2022-08-03T04:20:06.604Z,14.85
2022-08-03T04:20:42.677Z,13.60
2022-08-03T04:21:19.380Z,15.02
2022-08-03T04:21:57.234Z,13.15
2022-08-03T04:22:34.510Z,16.80
2022-08-03T04:23:13.735Z,16.27
2022-08-03T04:23:52.371Z,13.25
2022-08-03T04:24:29.359Z,13.95
2022-08-03T04:25:04.959Z,16.38
2022-08-03T04:25:42.157Z,17.20
2022-08-03T04:26:18.327Z,14.30
2022-08-03T04:26:53.043Z,15.52
2022-08-03T04:27:29.097Z,14.68
2022-08-03T04:28:08.155Z,12.43
2022-08-03T04:29:01.362Z,15.32
2022-08-03T04:29:38.666Z,16.58
2022-08-03T04:30:23.815Z,16.75
2022-08-03T04:30:57.412Z,14.18
2022-08-03T04:31:32.409Z,18.13
2022-08-03T04:32:08.733Z,14.27
2022-08-03T04:32:46.228Z,11.88
2022-08-03T04:33:30.345Z,13.38
2022-08-03T04:34:05.327Z,12.30
2022-08-03T04:34:41.589Z,18.85
2022-08-03T04:35:15.993Z,16.58
2022-08-03T04:36:01.801Z,14.68
2022-08-03T04:36:40.366Z,11.77
2022-08-03T04:37:17.742Z,15.98
2022-08-03T04:37:52.725Z,16.58
2022-08-03T04:38:27.861Z,17.75
2022-08-03T04:39:05.641Z,14.05
2022-08-03T04:39:40.717Z,12.27
2022-08-03T04:40:16.450Z,16.08
2022-08-03T04:40:55.963Z,15.07
2022-08-03T04:41:30.806Z,15.93
2022-08-03T04:42:08.635Z,13.25
2022-08-03T04:42:46.569Z,16.50
2022-08-03T04:43:20.299Z,30.35
2022-08-03T04:43:56.347Z,18.95
2022-08-03T04:44:31.416Z,14.73
2022-08-03T04:45:07.770Z,15.20
2022-08-03T04:45:42.388Z,18.00
2022-08-03T04:46:18.279Z,11.68
2022-08-03T04:46:53.262Z,13.05
2022-08-03T04:47:27.695Z,14.77
2022-08-03T04:48:03.193Z,14.40
2022-08-03T04:48:43.461Z,13.00
2022-08-03T04:49:19.354Z,19.92
2022-08-03T04:49:55.256Z,19.10
2022-08-03T04:50:29.049Z,18.92
2022-08-03T04:51:13.980Z,15.05
2022-08-03T04:51:49.422Z,22.05
2022-08-03T04:52:23.469Z,16.80
2022-08-03T04:52:57.762Z,21.27
2022-08-03T04:53:32.466Z,20.25
2022-08-03T04:54:07.868Z,24.73
2022-08-03T04:54:44.369Z,19.83
2022-08-03T04:55:28.970Z,19.75
2022-08-03T04:56:06.494Z,20.52
2022-08-03T04:56:41.465Z,17.38
2022-08-03T04:57:23.119Z,17.35
2022-08-03T04:57:57.847Z,15.38
2022-08-03T04:58:32.339Z,17.13
2022-08-03T04:59:07.204Z,16.55
2022-08-03T04:59:42.975Z,15.77
2022-08-03T05:00:19.029Z,30.40
2022-08-03T05:00:55.249Z,26.65
2022-08-03T05:01:29.636Z,20.15
2022-08-03T05:02:03.211Z,13.40
2022-08-03T05:02:38.328Z,21.55
2022-08-03T05:03:23.770Z,13.68
2022-08-03T05:04:01.066Z,17.02
2022-08-03T05:04:35.340Z,16.98
2022-08-03T05:05:09.702Z,14.02
2022-08-03T05:05:49.993Z,18.52
2022-08-03T05:06:26.900Z,16.40
2022-08-03T05:07:00.594Z,18.13
2022-08-03T05:07:46.893Z,14.13
2022-08-03T05:08:28.042Z,18.58
2022-08-03T05:09:03.880Z,24.23
2022-08-03T05:09:52.262Z,12.40
2022-08-03T05:10:29.007Z,16.58
2022-08-03T05:11:03.219Z,18.50
2022-08-03T05:11:39.252Z,30.20
2022-08-03T05:12:15.013Z,21.40
2022-08-03T05:12:52.354Z,20.38
2022-08-03T05:13:26.601Z,18.92
2022-08-03T05:14:03.282Z,16.55
2022-08-03T05:14:38.910Z,21.23
2022-08-03T05:15:13.217Z,15.05
2022-08-03T05:15:48.826Z,24.63
2022-08-03T05:16:22.567Z,12.48
2022-08-03T05:16:56.666Z,14.68
2022-08-03T05:17:35.029Z,19.35
2022-08-03T05:18:13.976Z,13.15
2022-08-03T05:18:47.765Z,13.77
2022-08-03T05:19:24.428Z,15.93
2022-08-03T05:19:59.379Z,17.42
2022-08-03T05:20:33.389Z,18.15
2022-08-03T05:21:09.009Z,16.52
2022-08-03T05:21:52.377Z,17.58
2022-08-03T05:22:27.725Z,13.50
2022-08-03T05:23:04.856Z,18.65
2022-08-03T05:23:40.600Z,17.42
2022-08-03T05:24:14.838Z,13.43
2022-08-03T05:24:49.077Z,20.27
2022-08-03T05:25:27.406Z,19.70
2022-08-03T05:26:01.519Z,16.65
2022-08-03T05:26:35.892Z,17.63
2022-08-03T05:27:12.810Z,21.80
2022-08-03T05:27:47.512Z,14.63
2022-08-03T05:28:22.626Z,15.35
2022-08-03T05:28:57.835Z,16.00
2022-08-03T05:29:32.305Z,19.27
2022-08-03T05:30:30.561Z,15.10
2022-08-03T05:31:03.072Z,18.48
2022-08-03T05:31:38.201Z,16.52
2022-08-03T05:32:12.855Z,15.93
2022-08-03T05:32:46.660Z,15.88
2022-08-03T05:33:22.029Z,38.55
2022-08-03T05:33:56.518Z,14.75
2022-08-03T05:34:32.976Z,20.15
2022-08-03T05:35:56.213Z,18.92
2022-08-03T05:36:04.628Z,18.00
2022-08-03T05:36:40.120Z,17.45
2022-08-03T05:37:13.824Z,16.80
2022-08-03T05:37:54.799Z,16.25
2022-08-03T05:38:34.970Z,16.88
2022-08-03T05:39:10.910Z,21.52
2022-08-03T05:39:45.211Z,19.33
2022-08-03T05:40:19.691Z,19.08
2022-08-03T05:40:57.176Z,25.50
2022-08-03T05:41:36.920Z,19.02
2022-08-03T05:42:11.771Z,19.30
2022-08-03T05:42:46.838Z,20.33
2022-08-03T05:43:21.433Z,17.98
2022-08-03T05:43:56.968Z,24.80
2022-08-03T05:44:32.369Z,18.75
2022-08-03T05:45:15.428Z,21.95
2022-08-03T05:46:11.673Z,17.35
2022-08-03T05:46:44.299Z,25.45
2022-08-03T05:47:19.189Z,17.02
2022-08-03T05:47:53.070Z,23.58
2022-08-03T05:48:29.931Z,25.98
2022-08-03T05:49:05.614Z,19.63
2022-08-03T05:49:40.951Z,24.10
2022-08-03T05:50:16.719Z,22.50
2022-08-03T05:50:50.631Z,18.98
2022-08-03T05:51:25.863Z,26.75
2022-08-03T05:52:12.778Z,21.27
2022-08-03T05:52:48.627Z,29.67
2022-08-03T05:53:23.469Z,23.73
2022-08-03T05:53:57.933Z,23.35
2022-08-03T05:54:56.054Z,21.70
2022-08-03T05:55:26.040Z,25.58
2022-08-03T05:56:02.738Z,22.38
2022-08-03T05:56:49.856Z,21.90
2022-08-03T05:57:24.276Z,22.35
2022-08-03T05:57:58.513Z,30.77
2022-08-03T05:58:34.763Z,26.55
2022-08-03T05:59:35.761Z,27.98
2022-08-03T06:00:05.370Z,54.83
2022-08-03T06:00:46.446Z,20.65
2022-08-03T06:01:23.461Z,19.80
2022-08-03T06:01:57.961Z,26.83
2022-08-03T06:02:32.489Z,21.02
2022-08-03T06:03:08.579Z,41.03
2022-08-03T06:03:44.144Z,37.60
2022-08-03T06:04:18.781Z,22.05
2022-08-03T06:04:55.511Z,18.73
2022-08-03T06:05:30.315Z,24.85
2022-08-03T06:06:05.177Z,20.25
2022-08-03T06:06:40.437Z,17.90
2022-08-03T06:07:14.559Z,39.22
2022-08-03T06:07:49.564Z,27.30
2022-08-03T06:08:23.879Z,26.73
2022-08-03T06:08:58.924Z,20.83
2022-08-03T06:10:34.919Z,22.80
2022-08-03T06:10:35.712Z,21.38
2022-08-03T06:11:11.683Z,21.83
2022-08-03T06:11:47.060Z,27.25
2022-08-03T06:12:22.138Z,20.67
2022-08-03T06:12:57.780Z,24.75
2022-08-03T06:13:33.214Z,33.92
2022-08-03T06:14:06.929Z,24.92
2022-08-03T06:14:40.581Z,27.05
2022-08-03T06:15:16.547Z,20.98
2022-08-03T06:15:51.375Z,22.33
2022-08-03T06:16:27.113Z,21.13
2022-08-03T06:17:02.087Z,17.23
2022-08-03T06:17:37.181Z,17.92
2022-08-03T06:18:13.209Z,20.55
2022-08-03T06:18:46.516Z,19.83
2022-08-03T06:19:21.764Z,18.75
2022-08-03T06:19:57.870Z,18.00
2022-08-03T06:20:31.872Z,17.15
2022-08-03T06:21:14.995Z,15.38
2022-08-03T06:21:50.749Z,17.75
2022-08-03T06:22:25.309Z,15.73
2022-08-03T06:23:03.666Z,19.73
2022-08-03T06:23:54.810Z,22.13
2022-08-03T06:24:29.688Z,541.03
2022-08-03T06:25:13.010Z,374.38
2022-08-03T06:25:49.321Z,46.58
2022-08-03T06:26:30.710Z,39.40
2022-08-03T06:27:06.101Z,32.60
2022-08-03T06:27:41.477Z,32.28
2022-08-03T06:28:51.264Z,26.42
2022-08-03T06:29:13.581Z,18.35
2022-08-03T06:29:49.034Z,17.23
2022-08-03T06:30:22.448Z,17.88
2022-08-03T06:30:56.882Z,18.83
2022-08-03T06:31:33.849Z,50.63
2022-08-03T06:32:09.236Z,42.05
2022-08-03T06:32:44.085Z,90.95
2022-08-03T06:34:30.626Z,73.10
2022-08-03T06:34:30.933Z,23.83
2022-08-03T06:35:12.047Z,57.05
2022-08-03T06:35:46.414Z,133.00
2022-08-03T06:36:21.017Z,152.55
2022-08-03T06:37:01.810Z,92.32
2022-08-03T06:37:44.352Z,103.05
2022-08-03T06:38:20.670Z,83.65
2022-08-03T06:38:55.282Z,90.38
2022-08-03T06:39:28.973Z,194.85
2022-08-03T06:40:04.855Z,295.13
2022-08-03T06:40:41.070Z,181.27
2022-08-03T06:41:16.475Z,21.75
2022-08-03T06:41:53.794Z,12.30
2022-08-03T06:42:28.437Z,60.42
2022-08-03T06:43:04.690Z,31.30
2022-08-03T06:44:03.965Z,35.42
2022-08-03T06:44:36.026Z,230.68
2022-08-03T06:45:13.296Z,265.33
2022-08-03T06:45:48.499Z,235.13
2022-08-03T06:46:23.310Z,32.90
2022-08-03T06:46:57.137Z,12.60
2022-08-03T06:47:32.843Z,13.57
2022-08-03T06:48:08.325Z,11.23
2022-08-03T06:48:42.865Z,24.25
2022-08-03T06:49:18.993Z,17.00
2022-08-03T06:50:16.151Z,48.05
2022-08-03T06:50:50.220Z,90.13
2022-08-03T06:52:03.377Z,19.15
2022-08-03T06:52:37.859Z,219.00
2022-08-03T06:53:19.679Z,193.18
2022-08-03T06:53:57.076Z,172.48
2022-08-03T06:54:33.196Z,157.55
2022-08-03T06:55:12.165Z,176.50
2022-08-03T06:55:49.030Z,200.18
2022-08-03T06:56:27.397Z,226.20
2022-08-03T06:57:01.656Z,169.77
2022-08-03T06:57:35.101Z,143.25
2022-08-03T06:58:10.611Z,26.52
2022-08-03T06:58:44.753Z,15.38
2022-08-03T07:00:09.728Z,14.90
2022-08-03T07:00:16.055Z,17.95
2022-08-03T07:00:50.101Z,19.13
2022-08-03T07:01:25.250Z,32.45
2022-08-03T07:01:59.409Z,133.52
2022-08-03T07:02:35.930Z,148.57
2022-08-03T07:03:11.336Z,41.05
2022-08-03T07:03:52.575Z,15.30
2022-08-03T07:04:27.055Z,20.35
2022-08-03T07:05:03.533Z,12.85
2022-08-03T07:05:38.703Z,51.42
2022-08-03T07:06:16.164Z,114.53
2022-08-03T07:06:50.936Z,39.95
2022-08-03T07:07:24.726Z,16.67
2022-08-03T07:07:59.372Z,11.45
2022-08-03T07:08:34.542Z,16.05
2022-08-03T07:09:09.010Z,8.95
2022-08-03T07:09:56.922Z,18.23
2022-08-03T07:10:32.697Z,17.95
2022-08-03T07:11:09.678Z,13.15
2022-08-03T07:11:44.310Z,63.55
2022-08-03T07:12:19.685Z,98.63
2022-08-03T07:12:56.539Z,64.95
2022-08-03T07:13:32.542Z,12.38
2022-08-03T07:14:07.093Z,12.88
2022-08-03T07:14:43.670Z,15.00
2022-08-03T07:15:20.494Z,35.60
2022-08-03T07:16:14.220Z,19.42
2022-08-03T07:16:47.839Z,9.88
2022-08-03T07:17:23.265Z,13.52
2022-08-03T07:17:58.963Z,14.25
2022-08-03T07:18:34.325Z,12.38
2022-08-03T07:19:08.087Z,12.25
2022-08-03T07:19:42.372Z,10.85
2022-08-03T07:20:18.421Z,13.90
2022-08-03T07:20:54.654Z,23.17
2022-08-03T07:21:29.675Z,20.30
2022-08-03T07:22:04.593Z,16.30
2022-08-03T07:22:40.994Z,9.85
2022-08-03T07:23:19.346Z,14.77
2022-08-03T07:23:54.073Z,19.33
2022-08-03T07:24:30.647Z,16.08
2022-08-03T07:25:05.870Z,16.10
2022-08-03T07:25:41.270Z,10.80
2022-08-03T07:26:16.405Z,12.52
2022-08-03T07:26:50.869Z,24.00
2022-08-03T07:27:25.246Z,49.20
2022-08-03T07:28:00.188Z,48.60
2022-08-03T07:28:34.680Z,50.70
2022-08-03T07:29:11.895Z,30.17
2022-08-03T07:29:50.898Z,15.45
2022-08-03T07:30:24.154Z,38.92
2022-08-03T07:31:02.470Z,56.38
2022-08-03T07:31:36.637Z,40.90
2022-08-03T07:32:10.966Z,37.80
2022-08-03T07:32:50.411Z,15.07
2022-08-03T07:34:00.374Z,12.80
2022-08-03T07:34:34.983Z,24.50
2022-08-03T07:35:24.451Z,36.00
2022-08-03T07:36:36.025Z,22.30
2022-08-03T07:37:11.164Z,12.95
2022-08-03T07:37:54.111Z,13.57
2022-08-03T07:38:29.175Z,15.60
2022-08-03T07:39:17.509Z,10.82
2022-08-03T07:39:53.196Z,14.23
2022-08-03T07:40:30.626Z,15.20
2022-08-03T07:41:04.856Z,16.33
2022-08-03T07:41:39.730Z,16.75
2022-08-03T07:42:17.306Z,12.73
2022-08-03T07:42:53.509Z,14.90
2022-08-03T07:43:30.292Z,15.43
2022-08-03T07:44:04.435Z,11.82
2022-08-03T07:44:39.412Z,16.23
2022-08-03T07:45:17.010Z,16.65
2022-08-03T07:45:50.733Z,8.82
2022-08-03T07:46:27.079Z,8.90
2022-08-03T07:47:03.368Z,16.35
2022-08-03T07:47:37.613Z,12.95
2022-08-03T07:48:13.241Z,12.65
2022-08-03T07:48:47.755Z,11.98
2022-08-03T07:49:24.159Z,20.58
2022-08-03T07:49:58.123Z,23.92
2022-08-03T07:50:32.120Z,22.00
2022-08-03T07:51:06.904Z,28.80
2022-08-03T07:51:42.553Z,28.17
2022-08-03T07:52:34.797Z,21.35
2022-08-03T07:53:11.464Z,22.75
2022-08-03T07:53:48.034Z,35.03
2022-08-03T07:54:22.934Z,22.80
2022-08-03T07:54:57.744Z,13.63
2022-08-03T07:55:32.898Z,18.23
2022-08-03T07:56:11.283Z,9.73
2022-08-03T07:56:47.194Z,33.63
2022-08-03T07:57:21.421Z,24.42
2022-08-03T07:58:02.724Z,20.20
2022-08-03T07:58:38.715Z,9.48
2022-08-03T07:59:12.881Z,12.18
2022-08-03T07:59:49.125Z,7.72
2022-08-03T08:00:46.806Z,9.43
2022-08-03T08:01:20.959Z,8.98
2022-08-03T08:01:54.772Z,8.38
2022-08-03T08:02:29.852Z,6.60
2022-08-03T08:03:04.703Z,7.15
2022-08-03T08:03:52.236Z,14.40